CheckWX is a tool to help pilots better visualize weather data.  It is not intended as a substitute for an official pre-flight weather briefing.

14:28:47 UTC

BGBW TAF
Narsarsuaq Airport
Narsarsuaq, Greenland
TAF BGBW 231132Z 2312/2320 04008KT 9999 BKN080 TEMPO 2312/2320 SCT080

Jan-23@
12:00 UTC

Jan-23 @ 12:00 UTC

Jan-23@
20:00 UTC

Jan-23 @ 20:00 UTC

TAF BGBW 231132Z 2312/2320 04008KT 9999 BKN080
Wind
  • 040° at 8 KTS
Cloud Levels
  • Broken at 8,000' AGL

Jan-23@
12:00 UTC

Jan-23 @ 12:00 UTC

Jan-23@
20:00 UTC

Jan-23 @ 20:00 UTC

TEMPO 2312/2320 SCT080

Temporary

Temporary Changes expected for less than half the time period

Cloud Levels
  • Scattered at 8,000' AGL